createdAt,value
2023-02-02T00:01:33.587Z,98960.25
2023-02-02T00:04:02.486Z,98946.53
2023-02-02T00:06:30.648Z,98932.03
2023-02-02T00:08:59.232Z,98925.91
2023-02-02T00:11:38.117Z,98925.41
2023-02-02T00:14:08.378Z,98922.56
2023-02-02T00:16:37.695Z,98930.91
2023-02-02T00:19:15.279Z,98929.31
2023-02-02T00:21:42.787Z,98932.16
2023-02-02T00:24:11.464Z,98939.41
2023-02-02T00:26:40.020Z,98923.34
2023-02-02T00:29:07.956Z,98929.31
2023-02-02T00:31:34.888Z,98933.09
2023-02-02T00:34:03.219Z,98934.69
2023-02-02T00:36:29.736Z,98928.22
2023-02-02T00:38:56.219Z,98943.69
2023-02-02T00:41:29.257Z,98934.84
2023-02-02T00:44:14.677Z,98941.00
2023-02-02T00:46:43.497Z,98929.78
2023-02-02T00:49:10.511Z,98936.75
2023-02-02T00:51:40.281Z,98937.81
2023-02-02T00:54:06.902Z,98937.34
2023-02-02T00:56:33.636Z,98941.94
2023-02-02T00:59:07.826Z,98949.47
2023-02-02T01:01:34.489Z,98948.69
2023-02-02T01:04:01.572Z,98946.78
2023-02-02T01:06:32.944Z,98937.97
2023-02-02T01:08:59.410Z,98941.94
2023-02-02T01:11:26.000Z,98955.63
2023-02-02T01:13:54.396Z,98952.47
2023-02-02T01:16:22.781Z,98957.34
2023-02-02T01:18:50.470Z,98954.66
2023-02-02T01:21:17.430Z,98958.75
2023-02-02T01:23:44.041Z,98953.69
2023-02-02T01:26:12.143Z,98960.91
2023-02-02T01:28:46.203Z,98954.78
2023-02-02T01:31:15.504Z,98962.31
2023-02-02T01:33:45.279Z,98971.16
2023-02-02T01:36:15.279Z,98965.00
2023-02-02T01:38:42.465Z,98971.47
2023-02-02T01:41:18.420Z,98976.81
2023-02-02T01:43:44.855Z,98986.41
2023-02-02T01:46:15.350Z,98985.34
2023-02-02T01:48:53.209Z,98979.97
2023-02-02T01:51:24.176Z,98990.69
2023-02-02T01:53:59.939Z,98990.69
2023-02-02T01:56:32.763Z,98990.69
2023-02-02T01:59:06.778Z,98995.44
2023-02-02T02:01:33.425Z,98984.72
2023-02-02T02:04:01.927Z,98986.63
2023-02-02T02:06:28.695Z,98981.56
2023-02-02T02:09:03.515Z,98983.16
2023-02-02T02:11:31.823Z,98980.47
2023-02-02T02:14:19.819Z,98978.88
2023-02-02T02:17:11.409Z,98987.53
2023-02-02T02:20:39.119Z,98983.56
2023-02-02T02:23:43.470Z,98984.66
2023-02-02T02:26:33.740Z,98993.50
2023-02-02T02:29:29.105Z,98990.31
2023-02-02T02:32:06.113Z,98979.91
2023-02-02T02:35:06.334Z,98982.91
2023-02-02T02:37:39.116Z,98977.53
2023-02-02T02:40:42.749Z,98973.28
2023-02-02T02:43:24.429Z,98969.00
2023-02-02T02:45:55.475Z,98975.47
2023-02-02T02:48:22.715Z,98969.31
2023-02-02T02:50:50.127Z,98958.59
2023-02-02T02:53:22.315Z,98963.94
2023-02-02T02:55:52.038Z,98960.50
2023-02-02T02:58:40.217Z,98965.84
2023-02-02T03:01:44.182Z,98972.78
2023-02-02T03:04:40.664Z,98973.88
2023-02-02T03:07:15.440Z,98965.06
2023-02-02T03:09:46.296Z,98962.38
2023-02-02T03:12:13.383Z,98966.63
2023-02-02T03:14:39.863Z,98967.44
2023-02-02T03:17:10.848Z,98971.97
2023-02-02T03:19:37.378Z,98971.69
2023-02-02T03:22:04.135Z,98970.91
2023-02-02T03:24:32.596Z,98973.28
2023-02-02T03:26:59.134Z,98981.00
2023-02-02T03:29:25.675Z,98985.56
2023-02-02T03:31:54.468Z,98981.50
2023-02-02T03:34:23.221Z,98976.44
2023-02-02T03:36:49.717Z,98983.69
2023-02-02T03:39:16.414Z,98979.13
2023-02-02T03:41:42.906Z,98976.44
2023-02-02T03:44:11.768Z,98988.72
2023-02-02T03:46:38.536Z,98982.59
2023-02-02T03:49:05.023Z,98980.69
2023-02-02T03:51:31.491Z,98966.22
2023-02-02T03:53:58.141Z,98974.75
2023-02-02T03:56:24.898Z,98982.19
2023-02-02T03:58:51.467Z,98979.50
2023-02-02T04:01:19.798Z,98980.28
2023-02-02T04:03:46.404Z,98988.81
2023-02-02T04:06:12.890Z,98990.69
2023-02-02T04:08:44.595Z,98993.88
2023-02-02T04:11:11.361Z,98995.44
2023-02-02T04:13:38.157Z,98994.34
2023-02-02T04:16:11.567Z,98984.72
2023-02-02T04:18:38.484Z,98990.06
2023-02-02T04:21:05.504Z,98979.38
2023-02-02T04:23:40.820Z,98989.28
2023-02-02T04:26:08.105Z,98991.19
2023-02-02T04:28:35.345Z,98996.06
2023-02-02T04:31:13.436Z,98996.84
2023-02-02T04:33:41.199Z,98989.09
2023-02-02T04:36:07.873Z,98991.50
2023-02-02T04:38:34.635Z,98987.53
2023-02-02T04:41:07.078Z,98982.47
2023-02-02T04:43:34.819Z,98969.41
2023-02-02T04:46:01.708Z,98964.81
2023-02-02T04:48:28.237Z,98980.88
2023-02-02T04:51:02.806Z,98974.75
2023-02-02T04:53:29.956Z,98973.16
2023-02-02T04:55:56.727Z,98977.72
2023-02-02T04:58:32.081Z,98970.47
2023-02-02T05:00:59.692Z,98974.25
2023-02-02T05:03:26.184Z,98973.47
2023-02-02T05:06:01.714Z,98984.97
2023-02-02T05:08:28.555Z,98975.63
2023-02-02T05:10:55.379Z,98991.91
2023-02-02T05:13:22.005Z,98984.97
2023-02-02T05:15:49.040Z,98994.59
2023-02-02T05:18:17.779Z,98998.88
2023-02-02T05:20:46.373Z,99005.31
2023-02-02T05:23:12.903Z,99002.63
2023-02-02T05:25:39.371Z,98991.91
2023-02-02T05:28:07.808Z,98996.97
2023-02-02T05:30:42.082Z,98983.88
2023-02-02T05:33:10.524Z,98987.34
2023-02-02T05:35:37.271Z,98982.78
2023-02-02T05:38:04.015Z,98977.44
2023-02-02T05:40:32.405Z,98977.13
2023-02-02T05:43:00.918Z,98976.22
2023-02-02T05:45:27.655Z,98978.59
2023-02-02T05:47:55.837Z,98977.50
2023-02-02T05:50:22.604Z,98982.53
2023-02-02T05:52:49.650Z,98989.50
2023-02-02T05:55:18.153Z,98985.22
2023-02-02T05:57:44.734Z,98989.97
2023-02-02T06:00:16.584Z,98995.03
2023-02-02T06:02:45.279Z,98993.44
2023-02-02T06:05:11.967Z,99002.75
2023-02-02T06:07:38.536Z,99005.94
2023-02-02T06:10:07.494Z,99001.38
2023-02-02T06:12:34.255Z,98995.22
2023-02-02T06:15:00.744Z,99002.66
2023-02-02T06:17:27.776Z,99000.75
2023-02-02T06:19:54.260Z,98996.19
2023-02-02T06:22:20.763Z,99001.25
2023-02-02T06:24:51.711Z,99008.84
2023-02-02T06:27:18.253Z,99010.94
2023-02-02T06:29:46.731Z,99015.19
2023-02-02T06:32:15.477Z,99007.44
2023-02-02T06:34:42.087Z,99009.81
2023-02-02T06:37:08.622Z,99006.06
2023-02-02T06:39:37.365Z,99003.84
2023-02-02T06:42:20.099Z,99011.09
2023-02-02T06:44:56.260Z,99015.69
2023-02-02T06:47:22.782Z,99014.88
2023-02-02T06:49:49.308Z,99018.38
2023-02-02T06:52:15.939Z,99019.75
2023-02-02T06:54:42.464Z,99029.88
2023-02-02T06:57:09.586Z,99023.91
2023-02-02T06:59:38.360Z,99030.06
2023-02-02T07:02:04.903Z,99031.63
2023-02-02T07:04:31.522Z,99037.00
2023-02-02T07:06:58.280Z,99034.50
2023-02-02T07:09:24.781Z,99035.59
2023-02-02T07:11:51.266Z,99030.44
2023-02-02T07:14:19.501Z,99035.78
2023-02-02T07:16:45.972Z,99030.22
2023-02-02T07:19:12.448Z,99025.06
2023-02-02T07:21:40.816Z,99038.47
2023-02-02T07:24:07.850Z,99035.19
2023-02-02T07:26:36.173Z,99035.34
2023-02-02T07:29:04.721Z,99036.16
2023-02-02T07:31:31.397Z,99038.53
2023-02-02T07:34:00.918Z,99037.75
2023-02-02T07:36:27.592Z,99034.75
2023-02-02T07:38:54.753Z,99043.09
2023-02-02T07:41:22.150Z,99051.44
2023-02-02T07:43:51.538Z,99048.28
2023-02-02T07:46:21.102Z,99045.28
2023-02-02T07:48:47.670Z,99044.19
2023-02-02T07:51:16.858Z,99037.25
2023-02-02T07:53:46.743Z,99041.50
2023-02-02T07:56:22.465Z,99038.03
2023-02-02T07:58:50.660Z,99052.53
2023-02-02T08:01:17.233Z,99056.00
2023-02-02T08:03:44.729Z,99058.88
2023-02-02T08:06:21.604Z,99050.22
2023-02-02T08:08:50.681Z,99065.22
2023-02-02T08:11:19.703Z,99061.25
2023-02-02T08:13:49.954Z,99066.13
2023-02-02T08:16:18.545Z,99083.81
2023-02-02T08:18:45.360Z,99080.34
2023-02-02T08:21:12.245Z,99076.84
2023-02-02T08:23:44.176Z,99078.44
2023-02-02T08:26:12.049Z,99072.28
2023-02-02T08:28:40.275Z,99076.84
2023-02-02T08:31:13.415Z,99079.22
2023-02-02T08:33:40.105Z,99076.22
2023-02-02T08:36:13.906Z,99068.69
2023-02-02T08:38:43.352Z,99072.16
2023-02-02T08:41:13.239Z,99065.69
2023-02-02T08:43:40.518Z,99072.34
2023-02-02T08:46:11.205Z,99070.88
2023-02-02T08:48:38.498Z,99076.06
2023-02-02T08:51:06.402Z,99081.84
2023-02-02T08:53:38.139Z,99080.88
2023-02-02T08:56:07.597Z,99086.84
2023-02-02T08:58:40.121Z,99084.78
2023-02-02T09:01:07.724Z,99086.66
2023-02-02T09:03:34.943Z,99085.06
2023-02-02T09:06:09.765Z,99087.25
2023-02-02T09:08:36.876Z,99088.84
2023-02-02T09:11:20.212Z,99106.00
2023-02-02T09:13:51.709Z,99104.16
2023-02-02T09:16:21.042Z,99114.06
2023-02-02T09:18:49.717Z,99112.97
2023-02-02T09:21:19.286Z,99109.19
2023-02-02T09:23:47.576Z,99112.06
2023-02-02T09:26:38.975Z,99111.47
2023-02-02T09:29:11.496Z,99116.22
2023-02-02T09:31:38.246Z,99119.38
2023-02-02T09:34:08.675Z,99117.19
2023-02-02T09:36:35.877Z,99119.75
2023-02-02T09:39:03.241Z,99116.19
2023-02-02T09:41:35.931Z,99129.75
2023-02-02T09:44:22.584Z,99129.66
2023-02-02T09:47:04.112Z,99129.50
2023-02-02T09:49:56.673Z,99126.25
2023-02-02T09:52:34.145Z,99140.13
2023-02-02T09:55:25.087Z,99140.03
2023-02-02T09:58:16.764Z,99137.50
2023-02-02T10:00:54.266Z,99145.75
2023-02-02T10:03:40.779Z,99152.56
2023-02-02T10:06:31.012Z,99148.16
2023-02-02T10:09:06.879Z,99155.50
2023-02-02T10:11:36.165Z,99152.97
2023-02-02T10:14:09.801Z,99168.47
2023-02-02T10:16:39.727Z,99176.69
2023-02-02T10:19:11.079Z,99171.34
2023-02-02T10:22:03.829Z,99171.34
2023-02-02T10:24:32.018Z,99173.72
2023-02-02T10:27:04.476Z,99177.22
2023-02-02T10:29:48.201Z,99180.78
2023-02-02T10:32:34.143Z,99179.81
2023-02-02T10:35:31.207Z,99183.31
2023-02-02T10:38:15.468Z,99176.03
2023-02-02T10:40:58.496Z,99180.47
2023-02-02T10:43:46.266Z,99171.94
2023-02-02T10:46:17.360Z,99175.41
2023-02-02T10:48:47.125Z,99179.38
2023-02-02T10:51:29.978Z,99188.53
2023-02-02T10:54:05.090Z,99182.69
2023-02-02T10:56:40.466Z,99181.59
2023-02-02T10:59:17.949Z,99186.34
2023-02-02T11:01:47.311Z,99178.28
2023-02-02T11:04:32.995Z,99187.94
2023-02-02T11:07:06.032Z,99184.44
2023-02-02T11:09:39.519Z,99186.03
2023-02-02T11:12:34.175Z,99178.66
2023-02-02T11:15:05.246Z,99168.38
2023-02-02T11:17:33.308Z,99163.41
2023-02-02T11:20:00.253Z,99160.41
2023-02-02T11:22:38.581Z,99156.66
2023-02-02T11:25:10.275Z,99154.00
2023-02-02T11:27:42.577Z,99160.50
2023-02-02T11:30:27.791Z,99152.78
2023-02-02T11:32:55.746Z,99152.53
2023-02-02T11:35:27.298Z,99149.53
2023-02-02T11:37:57.764Z,99144.84
2023-02-02T11:40:45.244Z,99149.13
2023-02-02T11:43:22.556Z,99152.16
2023-02-02T11:46:02.601Z,99152.34
2023-02-02T11:48:39.886Z,99149.50
2023-02-02T11:51:07.767Z,99146.03
2023-02-02T11:53:46.639Z,99133.38
2023-02-02T11:56:27.327Z,99132.25
2023-02-02T11:58:56.699Z,99122.13
2023-02-02T12:01:25.003Z,99118.66
2023-02-02T12:03:53.966Z,99136.38
2023-02-02T12:06:24.829Z,99127.03
2023-02-02T12:08:56.987Z,99130.03
2023-02-02T12:11:37.332Z,99123.56
2023-02-02T12:14:16.241Z,99108.19
2023-02-02T12:16:59.295Z,99120.06
2023-02-02T12:19:41.438Z,99112.97
2023-02-02T12:22:23.019Z,99107.91
2023-02-02T12:24:55.460Z,99110.91
2023-02-02T12:27:29.567Z,99103.47
2023-02-02T12:30:11.377Z,99108.88
2023-02-02T12:32:51.197Z,99105.84
2023-02-02T12:35:45.249Z,99106.50
2023-02-02T12:38:43.216Z,99121.81
2023-02-02T12:41:15.771Z,99111.22
2023-02-02T12:43:46.113Z,99114.84
2023-02-02T12:46:38.998Z,99122.28
2023-02-02T12:49:49.528Z,99126.69
2023-02-02T12:52:53.364Z,99129.69
2023-02-02T12:55:38.172Z,99138.38
2023-02-02T12:58:35.315Z,99126.66
2023-02-02T13:01:19.363Z,99122.69
2023-02-02T13:04:14.881Z,99122.69
2023-02-02T13:07:09.817Z,99137.19
2023-02-02T13:09:51.520Z,99127.47
2023-02-02T13:12:29.701Z,99128.53
2023-02-02T13:15:01.015Z,99134.28
2023-02-02T13:17:38.865Z,99125.22
2023-02-02T13:20:29.641Z,99134.38
2023-02-02T13:23:05.155Z,99122.50
2023-02-02T13:25:37.332Z,99117.13
2023-02-02T13:28:07.363Z,99122.34
2023-02-02T13:30:47.148Z,99123.63
2023-02-02T13:33:23.951Z,99132.97
2023-02-02T13:36:02.303Z,99131.25
2023-02-02T13:38:30.696Z,99135.22
2023-02-02T13:41:05.707Z,99122.59
2023-02-02T13:43:54.677Z,99131.09
2023-02-02T13:46:27.552Z,99131.31
2023-02-02T13:49:15.527Z,99125.31
2023-02-02T13:52:04.908Z,99126.28
2023-02-02T13:54:40.605Z,99126.47
2023-02-02T13:57:06.982Z,99122.66
2023-02-02T13:59:51.346Z,99119.84
2023-02-02T14:02:26.580Z,99126.97
2023-02-02T14:04:59.380Z,99124.63
2023-02-02T14:07:47.048Z,99127.19
2023-02-02T14:10:33.728Z,99128.59
2023-02-02T14:13:32.491Z,99128.59
2023-02-02T14:16:02.184Z,99132.88
2023-02-02T14:18:50.828Z,99125.31
2023-02-02T14:21:32.793Z,99128.16
2023-02-02T14:24:20.482Z,99139.09
2023-02-02T14:26:49.995Z,99135.28
2023-02-02T14:29:31.816Z,99134.97
2023-02-02T14:32:04.543Z,99136.25
2023-02-02T14:34:41.839Z,99128.84
2023-02-02T14:37:22.458Z,99136.44
2023-02-02T14:40:18.397Z,99130.94
2023-02-02T14:43:38.416Z,99142.28
2023-02-02T14:46:14.221Z,99150.19
2023-02-02T14:49:09.361Z,99165.03
2023-02-02T14:51:49.256Z,99165.69
2023-02-02T14:54:38.760Z,99164.56
2023-02-02T14:57:19.771Z,99163.31
2023-02-02T14:59:47.387Z,99178.16
2023-02-02T15:02:13.819Z,99190.81
2023-02-02T15:04:44.517Z,99186.84
2023-02-02T15:07:31.171Z,99187.47
2023-02-02T15:09:58.207Z,99199.63
2023-02-02T15:12:46.843Z,99193.44
2023-02-02T15:15:29.771Z,99199.94
2023-02-02T15:18:16.497Z,99195.03
2023-02-02T15:20:49.833Z,99192.84
2023-02-02T15:23:41.525Z,99195.34
2023-02-02T15:26:25.012Z,99206.41
2023-02-02T15:28:56.306Z,99203.72
2023-02-02T15:31:32.346Z,99205.63
2023-02-02T15:34:02.619Z,99204.03
2023-02-02T15:36:33.947Z,99201.66
2023-02-02T15:39:24.336Z,99201.66
2023-02-02T15:42:12.407Z,99203.84
2023-02-02T15:44:39.105Z,99202.88
2023-02-02T15:47:13.025Z,99207.44
2023-02-02T15:49:41.616Z,99205.06
2023-02-02T15:52:39.073Z,99211.84
2023-02-02T15:55:22.340Z,99215.63
2023-02-02T15:57:49.888Z,99210.75
2023-02-02T16:00:41.333Z,99208.22
2023-02-02T16:03:18.803Z,99213.59
2023-02-02T16:05:52.136Z,99216.78
2023-02-02T16:08:24.826Z,99226.13
2023-02-02T16:11:02.884Z,99225.63
2023-02-02T16:13:30.153Z,99235.28
2023-02-02T16:16:01.822Z,99233.38
2023-02-02T16:18:36.187Z,99241.44
2023-02-02T16:21:14.779Z,99241.75
2023-02-02T16:23:48.009Z,99242.56
2023-02-02T16:26:17.635Z,99237.78
2023-02-02T16:28:46.614Z,99243.78
2023-02-02T16:31:16.336Z,99237.94
2023-02-02T16:33:44.665Z,99251.72
2023-02-02T16:36:25.534Z,99254.72
2023-02-02T16:38:53.995Z,99259.16
2023-02-02T16:41:28.531Z,99249.50
2023-02-02T16:43:55.453Z,99250.00
2023-02-02T16:46:45.219Z,99259.66
2023-02-02T16:49:22.786Z,99264.72
2023-02-02T16:52:16.675Z,99261.72
2023-02-02T16:54:52.209Z,99274.41
2023-02-02T16:57:24.684Z,99277.38
2023-02-02T16:59:54.262Z,99278.81
2023-02-02T17:02:35.621Z,99281.63
2023-02-02T17:05:24.844Z,99293.47
2023-02-02T17:08:00.466Z,99291.41
2023-02-02T17:10:40.023Z,99293.00
2023-02-02T17:13:40.189Z,99288.81
2023-02-02T17:16:07.384Z,99288.81
2023-02-02T17:18:36.555Z,99294.19
2023-02-02T17:21:11.940Z,99294.50
2023-02-02T17:23:39.540Z,99292.63
2023-02-02T17:26:08.804Z,99302.41
2023-02-02T17:28:39.149Z,99309.53
2023-02-02T17:31:12.013Z,99291.72
2023-02-02T17:33:39.389Z,99296.59
2023-02-02T17:36:10.645Z,99294.50
2023-02-02T17:38:37.862Z,99293.72
2023-02-02T17:41:04.791Z,99296.22
2023-02-02T17:43:32.363Z,99304.09
2023-02-02T17:45:59.126Z,99296.38
2023-02-02T17:48:25.791Z,99299.03
2023-02-02T17:50:52.500Z,99307.56
2023-02-02T17:53:21.519Z,99307.28
2023-02-02T17:55:51.587Z,99309.78
2023-02-02T17:58:20.433Z,99305.81
2023-02-02T18:00:55.543Z,99305.03
2023-02-02T18:03:26.602Z,99312.78
2023-02-02T18:05:53.175Z,99305.19
2023-02-02T18:08:20.013Z,99312.78
2023-02-02T18:10:48.285Z,99307.41
2023-02-02T18:13:19.381Z,99306.44
2023-02-02T18:15:46.156Z,99306.06
2023-02-02T18:18:14.463Z,99295.44
2023-02-02T18:20:42.495Z,99306.47
2023-02-02T18:23:09.405Z,99298.75
2023-02-02T18:25:42.737Z,99297.44
2023-02-02T18:28:10.848Z,99303.50
2023-02-02T18:30:40.932Z,99300.63
2023-02-02T18:33:09.510Z,99306.19
2023-02-02T18:35:42.910Z,99308.88
2023-02-02T18:38:12.511Z,99301.13
2023-02-02T18:40:39.009Z,99296.84
2023-02-02T18:43:07.811Z,99303.81
2023-02-02T18:45:36.175Z,99304.88
2023-02-02T18:48:02.707Z,99312.63
2023-02-02T18:50:29.288Z,99311.06
2023-02-02T18:52:57.018Z,99314.03
2023-02-02T18:55:26.188Z,99320.53
2023-02-02T18:57:52.904Z,99313.25
2023-02-02T19:00:21.696Z,99310.56
2023-02-02T19:02:48.287Z,99303.13
2023-02-02T19:05:34.792Z,99317.53
2023-02-02T19:08:04.004Z,99321.63
2023-02-02T19:10:31.117Z,99330.59
2023-02-02T19:13:09.888Z,99329.78
2023-02-02T19:15:42.246Z,99332.59
2023-02-02T19:18:18.047Z,99334.66
2023-02-02T19:20:45.428Z,99329.91
2023-02-02T19:23:16.134Z,99331.31
2023-02-02T19:25:49.471Z,99337.16
2023-02-02T19:28:29.072Z,99339.66
2023-02-02T19:31:00.391Z,99331.41
2023-02-02T19:33:37.767Z,99345.13
2023-02-02T19:36:07.439Z,99341.16
2023-02-02T19:38:36.218Z,99343.97
2023-02-02T19:41:02.721Z,99351.22
2023-02-02T19:43:32.219Z,99345.06
2023-02-02T19:46:00.103Z,99358.00
2023-02-02T19:48:31.148Z,99368.22
2023-02-02T19:50:59.187Z,99359.38
2023-02-02T19:53:38.937Z,99372.81
2023-02-02T19:56:24.732Z,99371.50
2023-02-02T19:58:54.529Z,99367.75
2023-02-02T20:01:23.832Z,99371.19
2023-02-02T20:03:51.211Z,99375.78
2023-02-02T20:06:23.998Z,99378.16
2023-02-02T20:08:50.660Z,99374.88
2023-02-02T20:11:34.165Z,99376.78
2023-02-02T20:14:03.098Z,99376.28
2023-02-02T20:16:44.991Z,99374.97
2023-02-02T20:19:19.181Z,99377.97
2023-02-02T20:21:48.504Z,99376.56
2023-02-02T20:24:17.356Z,99385.09
2023-02-02T20:26:44.432Z,99381.34
2023-02-02T20:29:18.224Z,99387.50
2023-02-02T20:31:46.341Z,99388.09
2023-02-02T20:34:28.345Z,99404.19
2023-02-02T20:37:14.042Z,99401.50
2023-02-02T20:40:02.371Z,99398.81
2023-02-02T20:42:30.091Z,99389.69
2023-02-02T20:44:58.332Z,99390.28
2023-02-02T20:47:24.973Z,99375.28
2023-02-02T20:49:51.629Z,99376.19
2023-02-02T20:52:23.594Z,99363.97
2023-02-02T20:54:51.641Z,99371.34
2023-02-02T20:57:18.520Z,99364.47
2023-02-02T20:59:45.056Z,99361.78
2023-02-02T21:02:20.807Z,99369.66
2023-02-02T21:04:48.056Z,99366.28
2023-02-02T21:07:17.140Z,99372.41
2023-02-02T21:09:44.842Z,99369.53
2023-02-02T21:12:12.017Z,99374.59
2023-02-02T21:14:39.074Z,99364.66
2023-02-02T21:17:14.933Z,99368.44
2023-02-02T21:19:42.248Z,99375.19
2023-02-02T21:22:08.796Z,99380.84
2023-02-02T21:24:35.310Z,99379.25
2023-02-02T21:27:03.424Z,99382.53
2023-02-02T21:29:31.768Z,99387.41
2023-02-02T21:32:01.635Z,99381.25
2023-02-02T21:34:29.331Z,99381.25
2023-02-02T21:36:58.221Z,99383.72
2023-02-02T21:39:43.373Z,99385.91
2023-02-02T21:42:09.902Z,99387.00
2023-02-02T21:44:52.200Z,99384.41
2023-02-02T21:47:29.443Z,99385.00
2023-02-02T21:50:01.844Z,99394.94
2023-02-02T21:52:33.307Z,99393.66
2023-02-02T21:55:17.028Z,99397.41
2023-02-02T21:57:43.893Z,99396.81
2023-02-02T22:00:31.082Z,99401.09
2023-02-02T22:02:59.051Z,99404.16
2023-02-02T22:05:40.881Z,99405.53
2023-02-02T22:08:20.892Z,99405.84
2023-02-02T22:10:47.956Z,99401.06
2023-02-02T22:13:17.857Z,99399.16
2023-02-02T22:15:47.346Z,99399.75
2023-02-02T22:18:17.831Z,99388.84
2023-02-02T22:20:47.171Z,99397.97
2023-02-02T22:23:22.286Z,99405.53
2023-02-02T22:25:53.171Z,99402.56
2023-02-02T22:28:23.888Z,99398.75
2023-02-02T22:30:55.291Z,99400.94
2023-02-02T22:33:23.162Z,99397.19
2023-02-02T22:35:49.927Z,99391.84
2023-02-02T22:38:19.320Z,99394.59
2023-02-02T22:40:46.559Z,99396.78
2023-02-02T22:43:18.426Z,99400.03
2023-02-02T22:45:45.767Z,99407.56
2023-02-02T22:48:14.064Z,99411.03
2023-02-02T22:50:45.564Z,99413.50
2023-02-02T22:53:14.054Z,99420.53
2023-02-02T22:55:43.510Z,99422.22
2023-02-02T22:58:11.830Z,99420.69
2023-02-02T23:00:38.383Z,99434.16
2023-02-02T23:03:04.924Z,99434.25
2023-02-02T23:05:33.335Z,99435.59
2023-02-02T23:08:00.013Z,99437.56
2023-02-02T23:10:29.542Z,99440.03
2023-02-02T23:12:58.794Z,99443.66
2023-02-02T23:15:26.277Z,99440.44
2023-02-02T23:17:54.836Z,99436.78
2023-02-02T23:20:21.906Z,99434.38
2023-02-02T23:22:48.668Z,99442.25
2023-02-02T23:25:16.260Z,99438.13
2023-02-02T23:27:46.672Z,99433.69
2023-02-02T23:30:14.239Z,99435.13
2023-02-02T23:32:41.610Z,99439.75
2023-02-02T23:35:10.780Z,99438.72
2023-02-02T23:37:37.667Z,99428.88
2023-02-02T23:40:04.909Z,99431.03
2023-02-02T23:42:31.852Z,99426.56
2023-02-02T23:44:58.317Z,99429.50
2023-02-02T23:47:25.005Z,99421.53
2023-02-02T23:49:51.670Z,99426.16
2023-02-02T23:52:21.664Z,99425.66
2023-02-02T23:54:48.253Z,99428.06
2023-02-02T23:57:16.813Z,99430.81
2023-02-02T23:59:43.327Z,99421.19
